Statuaria spaventosa
| Nome | Statuaria spaventosa |
|---|---|
| Predefinito | Dread Statuary |
| Tipo | Terra |
| Descrizione | |
| Gusto | L'ultimo punto di riferimento affidabile di Tazeem se n'è appena andato. |
| Artista | Jason A. Engle |
| Espansione | Cospirazione: prendi la corona #217 |
| Carta da parati | |
| Immagine |
Di Statuaria spaventosa
Statuaria spaventosa, Terra, progettato da Jason A. Engle rilasciato per la prima volta febbraio 2010 in redazione Worldwake ed è stato stampato esattamente in 3 forme diverse. Attualmente viene venduto al prezzo più basso di € 0,31.
Un mazzo che trae vantaggio da Dread Statuary sarebbe un mazzo di controllo alla ricerca di fonti di mana aggiuntive e di una potenziale minaccia per mettere sotto pressione gli avversari. Sebbene possa fornire mana incolore e trasformarsi in una creatura per attaccare o bloccare, nella maggior parte dei mazzi ci sono probabilmente opzioni migliori sia per l'accelerazione del mana che per le minacce alle creature. Dread Statuary potrebbe essere giocata in situazioni limitate in cui la flessibilità è preziosa, ma potrebbe non essere un punto fermo nei mazzi competitivi a causa delle sue limitazioni rispetto ad altre carte.
Rugole
01/03/2010
Una terra che diventa una creatura può essere influenzata dalla “debolezza da evocazione”. Non puoi attaccare con essa o usare una qualsiasi delle sue abilità (comprese le sue abilità di mana) a meno che non abbia iniziato il tuo turno più recente sul campo di battaglia sotto il tuo controllo. Nota che la debolezza da evocazione considera da quanto tempo quel permanente è sotto il tuo controllo, non da quando è diventato una creatura.
Dove comprare
![]() | Card Kingdom | 43 uni.
| € 0,30 | visita il negozio |
![]() | Ebay.com | visita il negozio | ||
![]() | Cardkingdom | visita il negozio | ||
![]() | Printing proxies | $ 0.75 | visita il negozio |
*Questo sito contiene link di affiliazione per i quali potremmo ricevere un compenso
Gruppo
avviso di prezzo ?
Avvisami quando arriva il prezzo
Storico dell'andamento dei prezzi

Storico dei prezzi
| Data | Prezzo minimo | Prezzo medio | Decks |
|---|---|---|---|
| 2024-09-07 | 0.18 EUR | 0.26 EUR | 0 |
| 2024-09-09 | 0.16 EUR | 0.26 EUR | 0 |
| 2024-09-16 | 0.16 EUR | 0.25 EUR | 0 |
| 2024-09-23 | 0.15 EUR | 0.25 EUR | 0 |
| 2024-09-30 | 0.16 EUR | 0.25 EUR | 1 |
| 2024-10-07 | 0.16 EUR | 0.26 EUR | 0 |
| 2024-10-14 | 0.17 EUR | 0.26 EUR | 1 |
| 2024-10-21 | 0.17 EUR | 0.26 EUR | 0 |
| 2024-10-28 | 0.18 EUR | 0.27 EUR | 0 |
| 2024-11-06 | 0.19 EUR | 0.27 EUR | 0 |
| 2024-11-11 | 0.17 EUR | 0.27 EUR | 0 |
| 2024-11-18 | 0.18 EUR | 0.27 EUR | 1 |
| 2024-11-25 | 0.17 EUR | 0.27 EUR | 1 |
| 2024-12-02 | 0.19 EUR | 0.28 EUR | 1 |
| 2024-12-09 | 0.19 EUR | 0.28 EUR | 0 |
| 2024-12-19 | 0.19 EUR | 0.28 EUR | 0 |
| 2024-12-23 | 0.19 EUR | 0.28 EUR | 0 |
| 2024-12-30 | 0.19 EUR | 0.28 EUR | 0 |
| 2025-01-01 | 0.19 EUR | 0.28 EUR | 0 |
| 2025-01-06 | 0.19 EUR | 0.28 EUR | 0 |
| 2025-01-13 | 0.19 EUR | 0.28 EUR | 0 |
| 2025-01-20 | 0.19 EUR | 0.28 EUR | 1 |
| 2025-01-27 | 0.19 EUR | 0.28 EUR | 0 |
| 2025-02-03 | 0.19 EUR | 0.28 EUR | 0 |
| 2025-02-10 | 0.19 EUR | 0.28 EUR | 0 |
| 2025-02-18 | 0.16 EUR | 0.29 EUR | 0 |
| 2025-04-27 | 0.15 EUR | 0.30 EUR | 0 |
| 2025-04-28 | 0.14 EUR | 0.30 EUR | 0 |
| 2025-05-06 | 0.14 EUR | 0.30 EUR | 0 |
| 2025-05-12 | 0.14 EUR | 0.30 EUR | 0 |
| 2025-05-19 | 0.33 EUR | 0.34 EUR | 0 |
| 2025-05-28 | 0.33 EUR | 0.33 EUR | 0 |
| 2025-06-03 | 0.33 EUR | 0.33 EUR | 0 |
| 2025-06-10 | 0.33 EUR | 0.33 EUR | 0 |
| 2025-06-17 | 0.32 EUR | 0.32 EUR | 0 |
| 2025-06-23 | 0.32 EUR | 0.32 EUR | 0 |
| 2025-07-01 | 0.32 EUR | 0.32 EUR | 0 |
| 2025-07-08 | 0.32 EUR | 0.32 EUR | 0 |
| 2025-07-15 | 0.20 EUR | 0.30 EUR | 0 |
| 2025-07-22 | 0.20 EUR | 0.30 EUR | 0 |
| 2025-07-29 | 0.28 EUR | 0.33 EUR | 0 |
| 2025-08-05 | 0.33 EUR | 0.34 EUR | 0 |
| 2025-08-12 | 0.36 EUR | 0.36 EUR | 0 |
| 2025-08-18 | 0.34 EUR | 0.37 EUR | 0 |
| 2025-08-25 | 0.36 EUR | 0.42 EUR | 0 |
| 2025-09-02 | 0.36 EUR | 0.45 EUR | 0 |
| 2025-09-09 | 0.35 EUR | 0.42 EUR | 0 |
| 2025-09-15 | 0.42 EUR | 0.43 EUR | 0 |
| 2025-09-23 | 0.35 EUR | 0.36 EUR | 0 |
| 2025-09-29 | 0.41 EUR | 0.43 EUR | 0 |
| 2025-10-06 | 0.34 EUR | 0.39 EUR | 0 |
| 2025-10-13 | 0.32 EUR | 0.35 EUR | 0 |
| 2025-10-20 | 0.32 EUR | 0.32 EUR | 0 |
| 2025-10-27 | 0.32 EUR | 0.32 EUR | 0 |
| 2025-11-03 | 0.32 EUR | 0.32 EUR | 0 |
| 2025-11-10 | 0.31 EUR | 0.31 EUR | 0 |
| 2025-11-18 | 0.31 EUR | 0.31 EUR | 0 |
| 2025-11-24 | 0.32 EUR | 0.32 EUR | 0 |
| 2025-12-03 | 0.31 EUR | 0.31 EUR | 0 |
| 2025-12-08 | 0.32 EUR | 0.32 EUR | 0 |
| 2025-12-15 | 0.32 EUR | 0.32 EUR | 0 |
| 2025-12-22 | 0.32 EUR | 0.33 EUR | 0 |
| 2025-12-29 | 0.33 EUR | 0.33 EUR | 0 |
| 2026-01-01 | 0.32 EUR | 0.32 EUR | 0 |
| 2026-01-05 | 0.32 EUR | 0.32 EUR | 0 |
| 2026-01-13 | 0.32 EUR | 0.32 EUR | 2 |
| 2026-01-20 | 0.31 EUR | 0.31 EUR | 0 |
| 2026-01-26 | 0.31 EUR | 0.31 EUR | 0 |
| 2026-02-02 | 0.31 EUR | 0.31 EUR | 0 |
| 2026-02-09 | 0.31 EUR | 0.31 EUR | 0 |
| 2026-02-16 | 0.31 EUR | 0.31 EUR | 0 |
| 2026-02-23 | 0.30 EUR | 0.30 EUR | 0 |
| 2026-03-02 | 0.30 EUR | 0.31 EUR | 0 |
| 2026-03-10 | 0.31 EUR | 0.31 EUR | 0 |
| 2026-03-16 | 0.31 EUR | 0.31 EUR | 0 |
| 2026-04-02 | 0.31 EUR | 0.31 EUR | 0 |
| 2026-04-07 | 0.30 EUR | 0.30 EUR | 0 |
| 2026-04-14 | 0.29 EUR | 0.29 EUR | 0 |
| 2026-04-23 | 0.29 EUR | 0.29 EUR | 0 |
| 2026-04-30 | 0.29 EUR | 0.29 EUR | 0 |
| 2026-05-05 | 0.29 EUR | 0.29 EUR | 0 |
| 2026-05-14 | 0.29 EUR | 0.29 EUR | 0 |
| 2026-05-20 | 0.29 EUR | 0.30 EUR | 0 |
| 2026-05-25 | 0.30 EUR | 0.30 EUR | 0 |
| 2026-06-01 | 0.30 EUR | 0.30 EUR | 0 |
| 2026-06-08 | 0.30 EUR | 0.30 EUR | 0 |
| 2026-06-15 | 0.30 EUR | 0.30 EUR | 0 |
| 2026-06-23 | 0.30 EUR | 0.30 EUR | 0 |
| 2026-06-29 | 0.30 EUR | 0.30 EUR | 1 |
| 2026-07-06 | 0.30 EUR | 0.30 EUR | 0 |
| 2026-07-13 | 0.30 EUR | 0.31 EUR | 0 |
| 2026-07-20 | 0.30 EUR | 0.30 EUR | 0 |
| 2026-07-27 | 0.30 EUR | 0.30 EUR | 0 |
| 2026-08-03 | 0.30 EUR | 0.30 EUR | 0 |
| 2026-08-10 | 0.30 EUR | 0.30 EUR | 0 |
| 2026-08-17 | 0.31 EUR | 0.31 EUR | 0 |
| 2026-08-24 | 0.30 EUR | 0.30 EUR | 0 |
| 2026-09-01 | 0.30 EUR | 0.30 EUR | 0 |
Domande frequenti su Statuaria spaventosa
Che tipo di carta è Statuaria spaventosa?
Statuaria spaventosa è Terra carta inserita Magic: the Gathering MTG.
Qual è l'effetto della carta Statuaria spaventosa?
{4}: La Statuaria del Terrore diventa una creatura artefatto Golem 4/2 fino alla fine del turno. Rimane comunque una terra.
Qual è il prezzo della carta Statuaria spaventosa?
Statuaria spaventosa attualmente inizia alle € 0,31. Visualizza i prezzi in tempo reale di più venditori nella sezione Dove acquistare sopra.
Qual è il set originale della carta Statuaria spaventosa?
Statuaria spaventosa è stato rilasciato per la prima volta nel set Worldwake, illustrato da Jason A. Engle.
Qual è la legalità della carta Statuaria spaventosa?
La legalità dipende dal formato del torneo: Statuaria spaventosa può essere legale in alcuni formati e vietato o limitato in altri. Consulta la ripartizione completa per formato nella sezione Legalità sopra.





Reazioni
0
0 Commenti
Diventa il primo a commentare